Time;durP1;ratioP1;P1;durP2;ratioP2;P2;SDS_P1;SDS_P2;PMS_P1;PMS_P2;Temp;Humidity;BMP_temperature;BMP_pressure;BME280_temperature;BME280_humidity;BME280_pressure;Samples;Min_cycle;Max_cycle;Signal;HPM_P1;HPM_P2
2021/03/25 00:01:35;;;;;;;3.07;2.10;;;;;;;8.72;51.01;96074.22;5030531;28;20587;-81
2021/03/25 00:04:01;;;;;;;2.47;2.10;;;;;;;8.74;51.33;96082.56;5024434;28;20250;-85
2021/03/25 00:06:28;;;;;;;3.30;1.80;;;;;;;8.80;51.16;96074.28;5011910;28;20226;-83
2021/03/25 00:08:55;;;;;;;2.33;2.10;;;;;;;8.81;51.00;96079.25;5024435;28;20222;-83
2021/03/25 00:11:21;;;;;;;3.23;2.10;;;;;;;8.79;51.33;96078.59;5010841;28;20280;-82
2021/03/25 00:13:47;;;;;;;2.10;1.90;;;;;;;8.79;50.89;96070.91;5029728;28;20237;-82
2021/03/25 00:16:14;;;;;;;2.30;1.97;;;;;;;8.80;50.75;96076.84;5030844;28;20230;-80
2021/03/25 00:18:42;;;;;;;2.17;1.97;;;;;;;8.77;50.96;96072.81;5016248;28;20198;-83
2021/03/25 00:21:10;;;;;;;3.00;1.90;;;;;;;8.73;51.18;96068.13;5031066;28;20289;-82
2021/03/25 00:23:36;;;;;;;2.40;1.80;;;;;;;8.73;51.20;96068.94;5012974;28;20231;-84
2021/03/25 00:26:03;;;;;;;2.67;1.80;;;;;;;8.58;51.56;96068.69;5010818;28;20231;-82
2021/03/25 00:28:29;;;;;;;2.53;2.00;;;;;;;8.58;51.51;96065.31;5013251;28;20231;-82
2021/03/25 00:30:55;;;;;;;1.70;1.60;;;;;;;8.59;51.31;96062.63;5030443;28;20232;-82
2021/03/25 00:33:23;;;;;;;1.77;1.67;;;;;;;8.59;51.21;96064.38;5029947;28;20630;-82
2021/03/25 00:35:50;;;;;;;1.80;1.70;;;;;;;8.64;51.45;96060.41;5029869;28;20226;-81
2021/03/25 00:38:17;;;;;;;2.67;2.20;;;;;;;8.65;51.22;96051.75;5029665;28;20588;-81
2021/03/25 00:40:44;;;;;;;1.93;1.70;;;;;;;8.65;51.09;96053.50;5009968;28;20222;-81
2021/03/25 00:43:11;;;;;;;1.90;1.70;;;;;;;8.66;51.26;96048.19;5010982;28;20230;-82
2021/03/25 00:45:39;;;;;;;1.60;1.50;;;;;;;8.56;51.27;96050.06;5028722;28;20716;-82
2021/03/25 00:48:06;;;;;;;1.93;1.63;;;;;;;8.57;50.85;96043.19;5030672;28;20794;-83
2021/03/25 00:50:35;;;;;;;3.87;1.63;;;;;;;8.59;51.43;96048.97;5014861;28;20226;-84
2021/03/25 00:53:03;;;;;;;1.67;1.57;;;;;;;8.60;51.04;96050.59;5019403;28;20275;-82
2021/03/25 00:55:29;;;;;;;1.90;1.63;;;;;;;8.58;50.95;96048.16;5027646;28;20709;-82
2021/03/25 00:57:55;;;;;;;3.20;1.70;;;;;;;8.58;51.32;96047.38;5029922;28;20713;-83
2021/03/25 01:00:24;;;;;;;2.00;1.80;;;;;;;8.53;51.64;96040.13;5013041;28;20198;-83
2021/03/25 01:02:50;;;;;;;1.90;1.50;;;;;;;8.52;51.39;96035.94;5010500;28;20300;-82
2021/03/25 01:05:17;;;;;;;2.10;1.50;;;;;;;8.50;51.11;96037.84;5024792;28;20238;-82
2021/03/25 01:07:43;;;;;;;1.50;1.40;;;;;;;8.46;51.34;96034.00;5030053;28;20241;-83
2021/03/25 01:10:13;;;;;;;2.67;1.47;;;;;;;8.46;51.68;96041.69;5014628;28;20227;-83
2021/03/25 01:12:39;;;;;;;1.60;1.50;;;;;;;8.50;51.49;96042.19;5010321;28;20245;-84
2021/03/25 01:15:07;;;;;;;1.93;1.60;;;;;;;8.50;51.02;96035.28;5024051;28;20616;-80
2021/03/25 01:17:34;;;;;;;1.70;1.50;;;;;;;8.38;51.49;96033.13;5023169;28;20223;-82
2021/03/25 01:20:00;;;;;;;3.20;1.60;;;;;;;8.30;51.82;96031.28;5022620;28;20225;-81
2021/03/25 01:22:26;;;;;;;1.97;1.63;;;;;;;8.25;51.51;96024.06;5020722;28;20786;-81
2021/03/25 01:24:53;;;;;;;2.13;1.73;;;;;;;8.17;52.09;96034.25;5010194;28;20203;-82
2021/03/25 01:27:18;;;;;;;1.70;1.43;;;;;;;8.12;51.69;96023.63;5016956;28;20221;-81
2021/03/25 01:29:44;;;;;;;1.60;1.30;;;;;;;8.16;51.95;96027.53;5017912;28;20238;-80
2021/03/25 01:32:10;;;;;;;1.90;1.60;;;;;;;8.23;51.68;96020.84;5015622;28;20233;-81
2021/03/25 01:34:36;;;;;;;2.97;1.50;;;;;;;8.31;51.86;96028.56;5019978;28;20264;-81
2021/03/25 01:37:04;;;;;;;1.90;1.30;;;;;;;8.33;51.34;96025.88;5014109;28;20261;-83
2021/03/25 01:39:30;;;;;;;1.83;1.60;;;;;;;8.25;51.79;96026.63;5020465;28;20222;-82
2021/03/25 01:41:56;;;;;;;1.83;1.60;;;;;;;8.31;51.84;96020.06;5011924;28;20238;-82
2021/03/25 01:44:31;;;;;;;1.73;1.63;;;;;;;8.34;51.43;96026.69;5029872;28;20673;-81
2021/03/25 01:46:57;;;;;;;3.07;1.67;;;;;;;8.32;51.72;96022.50;5027444;28;20233;-84
2021/03/25 01:49:23;;;;;;;1.63;1.40;;;;;;;8.35;51.38;96021.41;5016459;28;20376;-83
2021/03/25 01:51:59;;;;;;;2.07;1.60;;;;;;;8.36;51.48;96025.59;5031562;28;20656;-80
2021/03/25 01:54:53;;;;;;;1.70;1.60;;;;;;;8.40;51.60;96018.41;5022035;28;20203;-81
2021/03/25 01:57:53;;;;;;;1.60;1.50;;;;;;;8.40;51.75;96020.97;5017359;28;20218;-83
2021/03/25 02:00:26;;;;;;;1.60;1.50;;;;;;;8.39;51.56;96019.34;5012485;28;20231;-81
2021/03/25 02:03:04;;;;;;;1.93;1.50;;;;;;;8.40;51.47;96019.19;5021207;28;20893;-82
2021/03/25 02:05:41;;;;;;;2.07;1.50;;;;;;;8.38;51.90;96017.75;5032855;28;20237;-82
2021/03/25 02:08:17;;;;;;;2.03;1.50;;;;;;;8.30;52.14;96016.69;5031217;28;20233;-81
2021/03/25 02:10:55;;;;;;;2.00;1.70;;;;;;;8.27;52.48;96019.56;5013984;28;20804;-82
2021/03/25 02:13:28;;;;;;;1.90;1.67;;;;;;;8.25;51.81;96023.25;5023836;28;20222;-81
2021/03/25 02:16:05;;;;;;;1.63;1.40;;;;;;;8.24;52.17;96008.81;5032887;28;20292;-82
2021/03/25 02:18:38;;;;;;;2.53;1.33;;;;;;;8.17;52.14;96013.75;5016157;28;20213;-80
2021/03/25 02:21:22;;;;;;;1.50;1.40;;;;;;;8.20;52.19;96010.88;5012865;28;20708;-81
2021/03/25 02:24:14;;;;;;;1.40;1.30;;;;;;;8.21;51.96;96004.78;5030655;28;20221;-83
2021/03/25 02:26:50;;;;;;;1.87;1.40;;;;;;;8.14;52.06;95998.66;5031917;28;20237;-81
2021/03/25 02:29:41;;;;;;;2.67;1.50;;;;;;;8.06;52.10;95995.25;5016940;28;20217;-80
2021/03/25 02:32:13;;;;;;;1.60;1.50;;;;;;;8.06;52.64;96006.31;5028203;28;20234;-82
2021/03/25 02:34:44;;;;;;;2.67;1.50;;;;;;;8.07;52.30;96007.91;5012823;28;20241;-82
2021/03/25 02:37:17;;;;;;;1.47;1.27;;;;;;;8.08;51.90;96001.81;5016012;28;20221;-83
2021/03/25 02:39:53;;;;;;;1.63;1.43;;;;;;;8.10;51.99;95997.34;5021458;28;20203;-83
2021/03/25 02:42:24;;;;;;;2.37;1.47;;;;;;;8.11;51.98;96000.72;5031018;28;20201;-81
2021/03/25 02:44:57;;;;;;;1.80;1.53;;;;;;;8.04;52.18;95997.16;5029176;28;20233;-81
2021/03/25 02:47:28;;;;;;;2.10;1.50;;;;;;;8.01;52.24;95995.69;5013547;28;20769;-83
2021/03/25 02:49:58;;;;;;;1.93;1.47;;;;;;;7.96;52.15;96006.38;5028451;28;20217;-82
2021/03/25 02:52:30;;;;;;;2.97;1.50;;;;;;;7.95;52.14;95994.53;5015542;28;20232;-82
2021/03/25 02:54:57;;;;;;;1.50;1.40;;;;;;;7.93;52.50;96001.56;5022336;28;20222;-80
2021/03/25 02:57:28;;;;;;;2.73;1.60;;;;;;;7.92;52.37;95999.13;5012545;28;20223;-81
2021/03/25 02:59:59;;;;;;;2.10;1.30;;;;;;;7.94;52.05;95994.66;5013203;28;20223;-82
2021/03/25 03:02:31;;;;;;;1.30;1.20;;;;;;;7.93;51.76;95996.44;5032783;28;20729;-83
2021/03/25 03:05:01;;;;;;;1.67;1.40;;;;;;;7.87;52.05;95998.81;5013551;28;20237;-80
2021/03/25 03:07:36;;;;;;;2.40;1.47;;;;;;;7.91;51.75;96002.66;5012254;28;20651;-81
2021/03/25 03:10:07;;;;;;;5.30;1.80;;;;;;;7.89;52.19;95997.69;5014467;28;20970;-82
2021/03/25 03:12:39;;;;;;;3.33;1.40;;;;;;;7.83;52.17;95990.59;5033252;28;20251;-81
2021/03/25 03:15:11;;;;;;;2.60;1.30;;;;;;;7.87;52.12;95997.03;5012743;28;20649;-82
2021/03/25 03:17:45;;;;;;;3.40;1.70;;;;;;;7.91;51.62;95992.41;5029703;28;20237;-81
2021/03/25 03:20:17;;;;;;;1.40;1.30;;;;;;;7.92;51.88;95994.81;5026158;28;20238;-82
2021/03/25 03:22:43;;;;;;;1.50;1.40;;;;;;;7.89;51.47;96000.25;5012343;28;20227;-81
2021/03/25 03:25:15;;;;;;;1.50;1.40;;;;;;;7.84;52.00;96005.03;5030024;28;20294;-82
2021/03/25 03:27:45;;;;;;;1.70;1.50;;;;;;;7.84;51.75;96002.47;5030034;28;20202;-84
2021/03/25 03:30:14;;;;;;;1.57;1.47;;;;;;;7.83;51.87;96002.63;5014238;28;20205;-81
2021/03/25 03:32:48;;;;;;;1.80;1.40;;;;;;;7.87;51.89;96001.38;5024138;28;20736;-80
2021/03/25 03:35:20;;;;;;;2.63;1.37;;;;;;;7.94;51.48;95997.22;5032116;28;20770;-81
2021/03/25 03:37:51;;;;;;;1.77;1.50;;;;;;;7.94;51.47;95989.53;5028984;28;20237;-81
2021/03/25 03:40:19;;;;;;;2.17;1.60;;;;;;;7.92;51.63;95992.25;5013733;28;20222;-80
2021/03/25 03:42:47;;;;;;;1.87;1.60;;;;;;;7.88;51.88;95996.09;5031559;28;20202;-82
2021/03/25 03:45:17;;;;;;;2.13;1.53;;;;;;;7.83;51.66;95988.03;5017183;28;20688;-81
2021/03/25 03:47:46;;;;;;;1.47;1.37;;;;;;;7.73;51.88;95992.44;5013159;28;20226;-82
2021/03/25 03:50:18;;;;;;;3.43;1.50;;;;;;;7.74;51.81;95986.34;5029829;28;20234;-81
2021/03/25 03:52:48;;;;;;;1.63;1.53;;;;;;;7.72;51.64;95990.03;5018317;28;20234;-79
2021/03/25 03:55:14;;;;;;;1.37;1.27;;;;;;;7.72;51.60;95997.72;5019593;28;20332;-80
2021/03/25 03:57:47;;;;;;;2.23;1.50;;;;;;;7.70;52.08;95991.94;5012725;28;20202;-81
2021/03/25 04:00:21;;;;;;;1.43;1.30;;;;;;;7.70;51.50;95997.06;5029732;28;20197;-81
2021/03/25 04:02:58;;;;;;;1.87;1.40;;;;;;;7.66;51.85;95993.19;5011696;28;20226;-79
2021/03/25 04:05:28;;;;;;;1.93;1.40;;;;;;;7.72;51.90;95997.72;5012726;28;20233;-82
2021/03/25 04:08:13;;;;;;;5.17;1.47;;;;;;;7.73;51.84;95995.00;5029011;28;20313;-83
2021/03/25 04:10:41;;;;;;;1.53;1.30;;;;;;;7.71;52.08;95996.91;5011032;28;20226;-81
2021/03/25 04:13:11;;;;;;;1.40;1.30;;;;;;;7.70;51.74;95991.94;5010870;28;20222;-83
2021/03/25 04:15:38;;;;;;;1.30;1.20;;;;;;;7.68;51.96;95994.66;5013928;28;20227;-80
2021/03/25 04:18:10;;;;;;;2.07;1.13;;;;;;;7.63;52.00;95994.28;5027350;28;20195;-80
2021/03/25 04:20:42;;;;;;;2.60;1.30;;;;;;;7.63;51.91;95995.09;5013894;28;20237;-81
2021/03/25 04:23:11;;;;;;;2.97;1.43;;;;;;;7.54;51.83;95995.97;5031495;28;20238;-80
2021/03/25 04:25:41;;;;;;;1.70;1.30;;;;;;;7.50;52.09;95993.88;5029413;28;20234;-80
2021/03/25 04:28:10;;;;;;;1.67;1.30;;;;;;;7.53;51.55;95994.34;5027329;28;20772;-84
2021/03/25 04:30:40;;;;;;;2.10;1.30;;;;;;;7.56;52.09;95994.06;5012822;28;20929;-80
2021/03/25 04:33:07;;;;;;;2.03;1.40;;;;;;;7.59;51.76;95998.09;5031510;28;20209;-83
2021/03/25 04:35:33;;;;;;;1.50;1.40;;;;;;;7.59;51.64;95991.22;5030642;28;20981;-84
2021/03/25 04:38:00;;;;;;;1.40;1.30;;;;;;;7.58;51.43;95999.03;5028523;28;20253;-81
2021/03/25 04:40:29;;;;;;;1.43;1.33;;;;;;;7.55;51.63;95997.56;5010727;28;20615;-80
2021/03/25 04:42:56;;;;;;;3.97;1.50;;;;;;;7.60;51.48;95999.72;5031424;28;20234;-82
2021/03/25 04:45:28;;;;;;;2.07;1.43;;;;;;;7.58;51.71;95999.03;5031437;28;20590;-79
2021/03/25 04:47:58;;;;;;;3.60;1.50;;;;;;;7.61;51.74;95994.44;5011881;28;20238;-82
2021/03/25 04:50:28;;;;;;;1.57;1.40;;;;;;;7.56;51.65;95991.50;5030673;28;20248;-79
2021/03/25 04:53:04;;;;;;;1.93;1.40;;;;;;;7.57;51.51;95997.44;5019261;28;20736;-79
2021/03/25 04:55:33;;;;;;;1.70;1.60;;;;;;;7.55;51.76;95999.34;5015788;28;20238;-80
2021/03/25 04:58:02;;;;;;;1.90;1.37;;;;;;;7.54;51.73;96000.28;5015441;28;20218;-81
2021/03/25 05:00:32;;;;;;;1.57;1.47;;;;;;;7.53;51.47;95996.91;5011317;28;20206;-79
2021/03/25 05:03:01;;;;;;;1.97;1.43;;;;;;;7.52;51.82;95994.50;5011151;28;20226;-79
2021/03/25 05:05:29;;;;;;;2.07;1.57;;;;;;;7.47;51.56;96002.66;5019705;28;20218;-82
2021/03/25 05:07:59;;;;;;;2.47;1.70;;;;;;;7.51;51.56;96000.56;5030744;28;20222;-82
2021/03/25 05:10:33;;;;;;;1.67;1.47;;;;;;;7.46;51.65;96003.59;5028823;28;20214;-84
2021/03/25 05:12:59;;;;;;;1.50;1.40;;;;;;;7.51;51.80;96001.38;5031630;28;20771;-82
2021/03/25 05:15:27;;;;;;;3.53;1.40;;;;;;;7.54;51.99;96005.41;5032011;28;20199;-84
2021/03/25 05:18:07;;;;;;;3.70;1.63;;;;;;;7.57;51.52;95995.69;5029774;28;20284;-83
2021/03/25 05:20:41;;;;;;;1.90;1.40;;;;;;;7.61;51.30;96002.13;5023954;28;20225;-81
2021/03/25 05:23:16;;;;;;;1.50;1.40;;;;;;;7.66;51.58;96001.69;5028511;28;20222;-83
2021/03/25 05:25:47;;;;;;;1.70;1.20;;;;;;;7.66;51.16;96003.44;5013713;28;20280;-83
2021/03/25 05:28:18;;;;;;;1.33;1.20;;;;;;;7.67;51.13;95999.94;5017615;28;20229;-81
2021/03/25 05:30:47;;;;;;;1.77;1.33;;;;;;;7.65;50.92;96000.06;5019625;28;20257;-83
2021/03/25 05:33:16;;;;;;;5.50;3.43;;;;;;;7.67;51.15;96000.75;5028288;28;20606;-84
2021/03/25 05:35:49;;;;;;;2.77;2.07;;;;;;;7.69;51.14;96005.72;5026877;28;20245;-85
2021/03/25 05:38:15;;;;;;;2.97;1.70;;;;;;;7.70;50.62;96004.75;5018102;28;20209;-81
2021/03/25 05:40:48;;;;;;;2.60;1.10;;;;;;;7.69;50.77;96013.41;5020309;28;20201;-84
2021/03/25 05:43:41;;;;;;;2.80;1.60;;;;;;;7.72;50.82;96007.97;5016244;28;20291;-84
2021/03/25 05:46:15;;;;;;;3.13;1.77;;;;;;;7.76;50.97;96009.28;5033838;28;20233;-83
2021/03/25 05:48:57;;;;;;;2.33;1.70;;;;;;;7.84;50.95;96010.16;5018232;28;20425;-84
2021/03/25 05:51:33;;;;;;;4.77;1.97;;;;;;;7.90;51.00;96006.16;5032132;28;20222;-85
2021/03/25 05:54:18;;;;;;;6.80;2.33;;;;;;;7.94;50.03;96008.28;5030386;28;20275;-81
2021/03/25 05:57:02;;;;;;;6.00;1.80;;;;;;;8.02;52.33;96014.44;5014842;28;20227;-85
2021/03/25 05:59:32;;;;;;;2.97;1.73;;;;;;;8.18;53.33;96012.78;5031261;28;20211;-81
2021/03/25 06:02:05;;;;;;;2.77;1.70;;;;;;;8.38;51.69;96015.19;5025194;28;20430;-85
2021/03/25 06:04:34;;;;;;;2.63;1.80;;;;;;;8.64;54.49;96014.19;5015135;28;20234;-84
2021/03/25 06:07:20;;;;;;;2.93;1.50;;;;;;;8.78;49.07;96017.13;5028937;28;20236;-82
2021/03/25 06:09:57;;;;;;;3.00;1.63;;;;;;;8.75;48.92;96020.00;5024683;28;20241;-83
2021/03/25 06:12:37;;;;;;;2.37;1.70;;;;;;;8.66;48.70;96012.25;5033295;28;20230;-84
2021/03/25 06:15:17;;;;;;;2.93;1.70;;;;;;;8.59;48.72;96018.97;5018390;28;20284;-84
2021/03/25 06:17:53;;;;;;;3.83;1.93;;;;;;;8.50;48.55;96019.88;5013275;28;20725;-84
2021/03/25 06:20:27;;;;;;;5.13;1.93;;;;;;;8.44;48.65;96022.28;5014112;28;20201;-81
2021/03/25 06:23:13;;;;;;;4.43;1.70;;;;;;;8.45;48.63;96023.88;5027819;28;20717;-84
2021/03/25 06:25:47;;;;;;;3.43;1.63;;;;;;;8.53;48.89;96026.47;5031834;28;20728;-83
2021/03/25 06:28:19;;;;;;;2.97;2.07;;;;;;;8.52;48.35;96023.09;5016504;28;20309;-84
2021/03/25 06:31:06;;;;;;;2.43;1.70;;;;;;;8.57;48.06;96033.72;5013630;28;20234;-84
2021/03/25 06:33:38;;;;;;;6.17;2.23;;;;;;;8.70;47.92;96030.72;5030916;28;20704;-84
2021/03/25 06:36:12;;;;;;;6.20;2.10;;;;;;;8.76;47.94;96035.25;5031699;28;20225;-84
2021/03/25 06:38:42;;;;;;;7.93;2.23;;;;;;;8.93;47.29;96031.78;5030957;28;20739;-82
2021/03/25 06:41:15;;;;;;;8.47;2.10;;;;;;;9.09;47.04;96030.22;5012747;28;20210;-82
2021/03/25 06:43:51;;;;;;;6.13;1.53;;;;;;;9.33;46.86;96035.44;5013376;28;20222;-83
2021/03/25 06:46:22;;;;;;;8.30;2.00;;;;;;;9.54;47.15;96040.13;5032589;28;20240;-83
2021/03/25 06:48:51;;;;;;;7.23;2.00;;;;;;;9.77;46.29;96036.00;5031280;28;20206;-83
2021/03/25 06:51:22;;;;;;;6.43;2.00;;;;;;;9.92;46.04;96039.53;5012594;28;20615;-82
2021/03/25 06:53:52;;;;;;;5.03;1.60;;;;;;;9.96;45.16;96033.09;5027322;28;20709;-82
2021/03/25 06:56:31;;;;;;;6.60;2.13;;;;;;;10.09;44.37;96042.88;5032540;28;20234;-82
2021/03/25 06:59:01;;;;;;;4.67;2.10;;;;;;;10.32;45.38;96050.78;5013991;28;20234;-84
2021/03/25 07:01:32;;;;;;;3.83;1.83;;;;;;;10.48;43.86;96047.38;5028464;28;20223;-83
2021/03/25 07:04:04;;;;;;;3.70;1.87;;;;;;;10.68;43.81;96048.59;5013241;28;20195;-83
2021/03/25 07:06:32;;;;;;;4.73;1.60;;;;;;;10.86;42.82;96046.63;5015774;28;20229;-81
2021/03/25 07:09:00;;;;;;;4.60;1.63;;;;;;;11.06;43.17;96049.59;5029688;28;20228;-83
2021/03/25 07:11:28;;;;;;;4.03;1.80;;;;;;;11.12;42.00;96059.25;5012464;28;20227;-83
2021/03/25 07:13:59;;;;;;;1.83;1.30;;;;;;;11.32;42.39;96054.47;5013185;28;20630;-84
2021/03/25 07:16:27;;;;;;;4.90;1.90;;;;;;;11.51;41.07;96055.81;5023263;28;20226;-82
2021/03/25 07:19:00;;;;;;;2.47;1.57;;;;;;;11.59;41.42;96058.34;5012892;28;20206;-83
2021/03/25 07:21:29;;;;;;;1.83;1.43;;;;;;;11.83;40.79;96062.56;5011960;28;20301;-84
2021/03/25 07:23:58;;;;;;;1.90;1.40;;;;;;;12.05;41.04;96054.00;5017267;28;20235;-82
2021/03/25 07:26:30;;;;;;;4.37;1.70;;;;;;;12.27;39.47;96055.75;5026871;28;20226;-84
2021/03/25 07:29:06;;;;;;;1.87;1.63;;;;;;;12.52;39.45;96051.16;5013747;28;20254;-82
2021/03/25 07:31:36;;;;;;;3.30;1.90;;;;;;;12.77;39.44;96059.47;5030863;28;20240;-80
2021/03/25 07:34:04;;;;;;;3.67;1.73;;;;;;;12.93;38.58;96059.28;5031118;28;20243;-82
2021/03/25 07:36:31;;;;;;;4.77;1.70;;;;;;;13.10;38.90;96060.69;5029479;28;20785;-82
2021/03/25 07:39:04;;;;;;;4.10;1.53;;;;;;;13.32;38.64;96048.63;5020531;28;20225;-84
2021/03/25 07:41:33;;;;;;;3.00;1.87;;;;;;;13.54;37.95;96056.44;5019009;28;20222;-84
2021/03/25 07:44:02;;;;;;;5.67;2.10;;;;;;;13.75;37.53;96056.47;5027542;28;20302;-83
2021/03/25 07:46:34;;;;;;;3.60;1.63;;;;;;;13.63;36.13;96061.34;5018983;28;20226;-80
2021/03/25 07:49:14;;;;;;;7.17;1.63;;;;;;;13.55;36.46;96065.81;5014738;28;20195;-83
2021/03/25 07:51:49;;;;;;;2.17;1.70;;;;;;;13.70;35.61;96056.19;5016937;28;20264;-81
2021/03/25 07:54:24;;;;;;;2.50;1.77;;;;;;;13.66;35.92;96066.13;5031573;28;20222;-83
2021/03/25 07:57:08;;;;;;;6.17;1.87;;;;;;;13.83;36.04;96057.16;5021967;28;20234;-81
2021/03/25 07:59:41;;;;;;;4.67;1.97;;;;;;;14.12;36.38;96052.81;5026375;28;20221;-83
2021/03/25 08:02:30;;;;;;;4.33;2.03;;;;;;;14.40;35.63;96052.84;5030949;28;20234;-84
2021/03/25 08:05:11;;;;;;;3.27;2.00;;;;;;;14.65;35.19;96056.59;5031220;28;20236;-83
2021/03/25 08:07:38;;;;;;;5.97;2.30;;;;;;;14.88;35.29;96058.13;5031273;28;20230;-82
2021/03/25 08:10:04;;;;;;;3.63;2.23;;;;;;;14.98;35.09;96054.22;5027133;28;20225;-82
2021/03/25 08:12:34;;;;;;;4.20;2.30;;;;;;;14.93;34.78;96056.59;5030984;28;20280;-84
2021/03/25 08:15:26;;;;;;;4.20;2.87;;;;;;;14.99;34.22;96052.44;5031481;28;20229;-83
2021/03/25 08:18:20;;;;;;;3.73;2.53;;;;;;;15.11;34.13;96056.88;5030907;28;20230;-83
2021/03/25 08:20:56;;;;;;;3.27;2.80;;;;;;;15.34;34.56;96059.16;5029576;28;20919;-84
2021/03/25 08:23:46;;;;;;;4.57;3.00;;;;;;;15.29;34.74;96058.13;5030832;28;20225;-83
2021/03/25 08:26:20;;;;;;;4.40;3.20;;;;;;;15.58;34.48;96060.47;5014323;28;20226;-81
2021/03/25 08:29:01;;;;;;;7.33;3.60;;;;;;;15.74;33.80;96054.91;5018538;28;20226;-84
2021/03/25 08:31:32;;;;;;;5.47;3.20;;;;;;;15.88;34.00;96058.34;5024033;28;20257;-83
2021/03/25 08:34:22;;;;;;;5.87;3.90;;;;;;;16.04;33.31;96054.53;5039260;28;20201;-83
2021/03/25 08:37:10;;;;;;;4.30;3.40;;;;;;;16.26;33.38;96055.16;5030925;28;20305;-83
2021/03/25 08:39:46;;;;;;;4.63;3.50;;;;;;;16.31;33.34;96060.56;5017782;28;20214;-84
2021/03/25 08:42:20;;;;;;;4.90;3.53;;;;;;;16.36;32.95;96055.53;5029731;28;20217;-82
2021/03/25 08:44:56;;;;;;;5.93;3.70;;;;;;;16.47;32.75;96060.16;5016404;28;20230;-83
2021/03/25 08:47:26;;;;;;;9.13;3.67;;;;;;;16.49;33.45;96050.34;5011508;28;20237;-83
2021/03/25 08:50:15;;;;;;;5.63;3.67;;;;;;;16.79;32.99;96054.13;5018218;28;20757;-83
2021/03/25 08:55:27;;;;;;;6.43;3.80;;;;;;;17.24;32.44;96052.41;5026460;28;20751;-85
2021/03/25 08:57:58;;;;;;;4.10;3.50;;;;;;;17.34;32.08;96051.94;5028800;28;20288;-81
2021/03/25 09:00:52;;;;;;;5.57;3.80;;;;;;;17.53;31.91;96052.84;5015977;28;20198;-83
2021/03/25 09:03:42;;;;;;;6.28;3.75;;;;;;;17.86;31.76;96053.53;5003398;28;20230;-85
2021/03/25 09:06:14;;;;;;;4.60;3.72;;;;;;;17.99;31.51;96052.63;5026981;28;20228;-84
2021/03/25 09:08:43;;;;;;;6.53;4.22;;;;;;;18.11;31.71;96040.50;5050813;28;20236;-84
2021/03/25 09:11:14;;;;;;;6.97;4.35;;;;;;;18.02;31.67;96047.00;5038432;28;20234;-83
2021/03/25 09:13:46;;;;;;;6.60;5.10;;;;;;;18.08;30.74;96040.94;5035351;28;20232;-84
2021/03/25 09:16:23;;;;;;;11.82;5.03;;;;;;;18.04;31.05;96044.19;5014379;28;20306;-85
2021/03/25 09:18:50;;;;;;;7.45;4.53;;;;;;;18.10;31.30;96036.28;5014340;28;20221;-84
2021/03/25 09:21:19;;;;;;;7.03;5.70;;;;;;;18.15;30.49;96033.84;5034876;28;20233;-84
2021/03/25 09:24:03;;;;;;;6.10;5.50;;;;;;;18.23;30.23;96038.81;5014565;28;20304;-83
2021/03/25 09:26:54;;;;;;;7.97;6.40;;;;;;;18.39;30.19;96029.66;5014699;28;20304;-82
2021/03/25 09:29:24;;;;;;;9.32;6.90;;;;;;;18.52;30.51;96032.13;5013011;28;20309;-84
2021/03/25 09:32:31;;;;;;;8.35;6.70;;;;;;;18.54;29.03;96027.50;5017720;28;20286;-84
2021/03/25 09:34:59;;;;;;;8.27;6.55;;;;;;;18.53;28.54;96027.72;5034231;28;20601;-85
2021/03/25 09:37:27;;;;;;;8.50;6.25;;;;;;;18.64;28.90;96021.84;5014314;28;20230;-85
2021/03/25 09:40:11;;;;;;;10.63;7.35;;;;;;;18.74;28.15;96029.94;5013176;28;20198;-83
2021/03/25 09:42:41;;;;;;;9.40;7.22;;;;;;;18.89;28.68;96027.78;5014358;28;20194;-84
2021/03/25 09:45:20;;;;;;;6.88;6.10;;;;;;;19.04;29.26;96027.44;5014680;28;20234;-85
2021/03/25 09:47:56;;;;;;;10.70;6.50;;;;;;;19.00;29.22;96026.28;5014382;28;20231;-85
2021/03/25 09:50:28;;;;;;;10.50;6.63;;;;;;;19.12;29.52;96024.53;5020530;28;20221;-83
2021/03/25 09:53:11;;;;;;;10.15;6.25;;;;;;;19.24;28.59;96027.22;5032741;28;20296;-83
2021/03/25 09:55:40;;;;;;;10.63;6.85;;;;;;;19.35;28.30;96025.66;5034095;28;20309;-82
2021/03/25 09:58:41;;;;;;;9.98;6.72;;;;;;;19.36;28.04;96015.00;5032668;28;20195;-84
2021/03/25 10:01:07;;;;;;;8.68;6.93;;;;;;;19.43;28.01;96026.16;5033440;28;20209;-83
2021/03/25 10:04:01;;;;;;;7.55;6.57;;;;;;;19.48;27.47;96023.66;5033578;28;20221;-84
2021/03/25 10:06:45;;;;;;;7.20;6.38;;;;;;;19.49;28.01;96017.41;5033850;28;20241;-84
2021/03/25 10:09:11;;;;;;;8.55;6.50;;;;;;;19.41;28.45;96017.75;5032623;28;20619;-83
2021/03/25 10:11:46;;;;;;;7.10;6.40;;;;;;;19.54;28.32;96019.41;5019821;28;20223;-83
2021/03/25 10:14:51;;;;;;;8.82;6.75;;;;;;;19.35;27.34;96008.16;5013630;28;20241;-84
2021/03/25 10:17:44;;;;;;;7.38;6.60;;;;;;;19.26;27.44;96015.50;5013689;28;20285;-83
2021/03/25 10:20:13;;;;;;;10.35;6.63;;;;;;;19.27;27.98;96017.09;5012774;28;20777;-81
2021/03/25 10:22:40;;;;;;;7.97;6.35;;;;;;;19.24;28.11;96020.16;5013995;28;20230;-81
2021/03/25 10:25:07;;;;;;;7.50;6.25;;;;;;;19.31;28.00;96012.25;5030271;28;20259;-84
2021/03/25 10:27:39;;;;;;;8.90;6.75;;;;;;;19.37;27.46;96003.53;5033595;28;20230;-83
2021/03/25 10:30:21;;;;;;;9.30;6.28;;;;;;;19.54;28.23;96006.34;5032133;28;20687;-83
2021/03/25 10:32:49;;;;;;;8.40;6.10;;;;;;;19.60;27.82;95993.19;5030233;28;20601;-82
2021/03/25 10:35:27;;;;;;;9.50;6.75;;;;;;;19.56;27.65;96004.31;5028649;28;20271;-84
2021/03/25 10:37:58;;;;;;;7.47;6.47;;;;;;;19.42;27.71;95997.66;5029871;28;20252;-83
2021/03/25 10:40:33;;;;;;;8.10;6.57;;;;;;;19.26;27.02;95985.97;5019437;28;20229;-84
2021/03/25 10:43:02;;;;;;;7.72;6.55;;;;;;;19.19;27.94;95988.69;5026626;28;20653;-81
2021/03/25 10:45:37;;;;;;;8.07;6.20;;;;;;;19.23;28.52;95992.47;5013190;28;20718;-82
2021/03/25 10:48:07;;;;;;;9.68;7.45;;;;;;;19.43;28.52;95988.81;5012624;28;20289;-82
2021/03/25 10:50:40;;;;;;;7.45;6.65;;;;;;;19.53;28.04;95987.25;5012267;28;20226;-84
2021/03/25 10:53:14;;;;;;;11.63;7.07;;;;;;;19.37;28.56;95974.81;5022297;28;20226;-84
2021/03/25 10:55:43;;;;;;;12.15;6.82;;;;;;;19.32;28.57;95975.47;5022466;28;20295;-84
2021/03/25 10:58:21;;;;;;;7.47;6.63;;;;;;;19.19;28.49;95978.25;5016897;28;20194;-85
2021/03/25 11:00:47;;;;;;;10.65;7.38;;;;;;;19.24;28.50;95969.78;5032182;28;20202;-84
2021/03/25 11:03:19;;;;;;;8.45;6.97;;;;;;;19.21;28.18;95972.81;5032773;28;20228;-84
2021/03/25 11:05:56;;;;;;;9.68;7.00;;;;;;;19.20;28.94;95972.03;5023553;28;20706;-85
2021/03/25 11:08:31;;;;;;;8.55;6.22;;;;;;;19.22;27.85;95971.81;5013089;28;20249;-84
2021/03/25 11:10:59;;;;;;;10.65;7.15;;;;;;;19.32;28.86;95966.81;5012413;28;20341;-85
2021/03/25 11:13:26;;;;;;;8.38;7.30;;;;;;;19.41;29.33;95965.50;5013108;28;20234;-84
2021/03/25 11:15:57;;;;;;;9.77;7.13;;;;;;;19.54;29.21;95961.94;5019655;28;20221;-84
2021/03/25 11:18:27;;;;;;;8.20;6.53;;;;;;;19.66;28.54;95960.94;5032684;28;20601;-84
2021/03/25 11:20:54;;;;;;;9.30;7.00;;;;;;;19.44;27.82;95956.41;5025979;28;20222;-84
2021/03/25 11:23:23;;;;;;;7.80;6.95;;;;;;;19.18;29.10;95955.78;5012730;28;20235;-84
2021/03/25 11:25:55;;;;;;;8.25;5.93;;;;;;;19.25;29.16;95953.84;5013709;28;20807;-84
2021/03/25 11:28:22;;;;;;;8.73;6.15;;;;;;;19.40;28.52;95950.06;5013322;28;20304;-84
2021/03/25 11:30:50;;;;;;;8.07;6.15;;;;;;;19.51;29.27;95957.16;5013277;28;20203;-85
2021/03/25 11:33:25;;;;;;;9.63;6.30;;;;;;;19.69;28.92;95945.84;5012634;28;20292;-84
2021/03/25 11:35:51;;;;;;;6.30;5.15;;;;;;;19.85;29.35;95951.19;5012869;28;20226;-85
2021/03/25 11:38:28;;;;;;;15.43;5.78;;;;;;;19.89;28.71;95944.50;5013492;28;20222;-85
2021/03/25 11:40:57;;;;;;;8.20;6.47;;;;;;;19.89;28.64;95938.50;5013011;28;20318;-84
2021/03/25 11:43:37;;;;;;;7.68;6.00;;;;;;;19.79;28.32;95936.44;5012456;28;20249;-84
2021/03/25 11:46:03;;;;;;;7.40;5.57;;;;;;;19.86;28.73;95937.13;5012145;28;20276;-84
2021/03/25 11:48:32;;;;;;;9.48;5.20;;;;;;;19.92;28.13;95938.03;5013190;28;20206;-84
2021/03/25 11:51:22;;;;;;;7.57;5.55;;;;;;;20.01;28.29;95934.84;5012300;28;20254;-85
2021/03/25 11:53:54;;;;;;;11.82;5.95;;;;;;;19.92;28.00;95944.06;5028456;28;20275;-85
2021/03/25 11:56:29;;;;;;;6.95;5.38;;;;;;;19.84;28.18;95935.75;5032477;28;20230;-85
2021/03/25 11:59:02;;;;;;;4.93;4.38;;;;;;;19.82;27.51;95929.97;5022373;28;20226;-84
2021/03/25 12:01:39;;;;;;;6.05;4.35;;;;;;;19.80;27.80;95927.59;5012273;28;20274;-85
2021/03/25 12:04:23;;;;;;;4.72;4.32;;;;;;;19.97;28.06;95925.91;5008948;28;20484;-84
2021/03/25 12:07:15;;;;;;;5.85;4.63;;;;;;;20.03;27.43;95921.56;5012581;28;20234;-84
2021/03/25 12:12:49;;;;;;;5.35;4.45;;;;;;;20.07;27.67;95907.00;5011182;28;20283;-84